createdAt,value
2022-09-20T00:00:45.543Z,0.00
2022-09-20T00:01:45.490Z,0.00
2022-09-20T00:02:45.273Z,0.00
2022-09-20T00:03:45.192Z,0.00
2022-09-20T00:04:45.130Z,0.00
2022-09-20T00:05:45.032Z,0.00
2022-09-20T00:06:44.951Z,0.00
2022-09-20T00:07:44.870Z,0.00
2022-09-20T00:08:44.787Z,0.00
2022-09-20T00:09:44.710Z,0.00
2022-09-20T00:10:44.631Z,0.00
2022-09-20T00:11:44.546Z,0.00
2022-09-20T00:12:44.468Z,0.00
2022-09-20T00:13:44.388Z,0.00
2022-09-20T00:14:44.306Z,0.00
2022-09-20T00:15:44.228Z,0.00
2022-09-20T00:16:44.237Z,0.00
2022-09-20T00:17:44.068Z,0.00
2022-09-20T00:18:44.237Z,0.00
2022-09-20T00:19:43.907Z,0.00
2022-09-20T00:20:43.828Z,0.00
2022-09-20T00:22:26.230Z,0.00
2022-09-20T00:23:26.146Z,0.00
2022-09-20T00:24:26.066Z,0.00
2022-09-20T00:25:25.987Z,0.00
2022-09-20T00:26:25.908Z,0.00
2022-09-20T00:27:25.824Z,0.00
2022-09-20T00:28:25.746Z,0.00
2022-09-20T00:29:25.668Z,0.00
2022-09-20T00:30:25.587Z,0.00
2022-09-20T00:31:25.591Z,0.00
2022-09-20T00:32:25.445Z,0.00
2022-09-20T00:33:25.344Z,0.00
2022-09-20T00:35:25.424Z,0.00
2022-09-20T00:36:25.143Z,0.00
2022-09-20T00:37:25.270Z,0.00
2022-09-20T00:38:24.978Z,0.00
2022-09-20T00:39:24.908Z,0.00
2022-09-20T00:40:25.598Z,0.00
2022-09-20T00:43:24.851Z,0.00
2022-09-20T00:47:24.776Z,0.00
2022-09-20T00:49:24.089Z,0.00
2022-09-20T00:50:23.988Z,0.00
2022-09-20T00:51:23.947Z,0.00
2022-09-20T00:52:23.892Z,0.00
2022-09-20T00:53:23.747Z,0.00
2022-09-20T00:54:23.669Z,0.00
2022-09-20T00:55:23.591Z,0.00
2022-09-20T00:56:23.508Z,0.00
2022-09-20T00:57:23.577Z,0.00
2022-09-20T00:58:23.346Z,0.00
2022-09-20T00:59:23.269Z,0.00
2022-09-20T01:00:23.187Z,0.00
2022-09-20T01:01:23.178Z,0.00
2022-09-20T01:02:23.085Z,0.00
2022-09-20T01:03:22.954Z,0.00
2022-09-20T01:04:22.870Z,0.00
2022-09-20T01:05:22.847Z,0.00
2022-09-20T01:06:22.741Z,0.00
2022-09-20T01:07:22.628Z,0.00
2022-09-20T01:08:22.546Z,0.00
2022-09-20T01:09:22.504Z,0.00
2022-09-20T01:10:22.729Z,0.00
2022-09-20T01:11:22.545Z,0.00
2022-09-20T01:12:22.270Z,0.00
2022-09-20T01:13:22.183Z,0.00
2022-09-20T01:14:22.271Z,0.00
2022-09-20T01:15:22.447Z,0.00
2022-09-20T01:16:22.107Z,0.00
2022-09-20T01:17:21.829Z,0.00
2022-09-20T01:18:21.984Z,0.00
2022-09-20T01:19:21.703Z,0.00
2022-09-20T01:20:22.026Z,0.00
2022-09-20T01:21:22.455Z,0.00
2022-09-20T01:23:21.586Z,0.00
2022-09-20T01:24:22.029Z,0.00
2022-09-20T01:25:21.225Z,0.00
2022-09-20T01:26:21.146Z,0.00
2022-09-20T01:27:21.264Z,0.00
2022-09-20T01:28:21.252Z,0.00
2022-09-20T01:30:20.802Z,0.00
2022-09-20T01:31:21.188Z,0.00
2022-09-20T01:34:20.496Z,0.00
2022-09-20T01:38:20.160Z,0.00
2022-09-20T01:39:20.098Z,0.00
2022-09-20T01:40:20.110Z,0.00
2022-09-20T01:41:19.942Z,0.00
2022-09-20T01:42:19.854Z,0.00
2022-09-20T01:43:20.249Z,0.00
2022-09-20T01:44:19.694Z,0.00
2022-09-20T01:45:19.617Z,0.00
2022-09-20T01:46:19.856Z,0.00
2022-09-20T01:47:19.660Z,0.00
2022-09-20T01:48:20.101Z,0.00
2022-09-20T01:50:19.418Z,0.00
2022-09-20T01:51:19.441Z,0.00
2022-09-20T01:52:19.259Z,0.00
2022-09-20T01:55:19.039Z,0.00
2022-09-20T02:07:18.555Z,0.00
2022-09-20T02:08:18.164Z,0.00
2022-09-20T02:10:18.612Z,0.00
2022-09-20T02:12:18.311Z,0.00
2022-09-20T02:19:17.073Z,0.00
2022-09-20T02:22:17.336Z,0.00
2022-09-20T02:33:15.719Z,0.00
2022-09-20T02:34:15.617Z,0.00
2022-09-20T02:35:15.538Z,0.00
2022-09-20T02:36:15.455Z,0.00
2022-09-20T02:37:15.373Z,0.00
2022-09-20T02:38:15.344Z,0.00
2022-09-20T02:39:15.255Z,0.00
2022-09-20T02:40:15.219Z,0.00
2022-09-20T02:41:15.049Z,0.00
2022-09-20T02:42:14.966Z,0.00
2022-09-20T02:43:14.888Z,0.00
2022-09-20T02:44:14.804Z,0.00
2022-09-20T02:45:14.722Z,0.00
2022-09-20T02:46:14.707Z,0.00
2022-09-20T02:47:14.561Z,0.00
2022-09-20T02:48:14.479Z,0.00
2022-09-20T02:49:14.415Z,0.00
2022-09-20T02:50:14.316Z,0.00
2022-09-20T02:51:14.237Z,0.00
2022-09-20T02:52:14.153Z,0.00
2022-09-20T02:53:14.076Z,0.00
2022-09-20T02:54:13.994Z,0.00
2022-09-20T02:55:13.911Z,0.00
2022-09-20T02:56:13.829Z,0.00
2022-09-20T02:57:13.747Z,0.00
2022-09-20T02:58:13.668Z,0.00
2022-09-20T02:59:13.582Z,0.00
2022-09-20T03:00:13.502Z,0.00
2022-09-20T03:01:13.472Z,0.00
2022-09-20T03:02:13.432Z,0.00
2022-09-20T03:03:13.258Z,0.00
2022-09-20T03:04:13.175Z,0.00
2022-09-20T03:05:13.111Z,0.00
2022-09-20T03:06:13.012Z,0.00
2022-09-20T03:07:12.930Z,0.00
2022-09-20T03:08:12.851Z,0.00
2022-09-20T03:09:12.766Z,0.00
2022-09-20T03:10:12.685Z,0.00
2022-09-20T03:11:12.603Z,0.00
2022-09-20T03:12:12.523Z,0.00
2022-09-20T03:13:12.456Z,0.00
2022-09-20T03:14:12.358Z,0.00
2022-09-20T03:15:12.279Z,0.00
2022-09-20T03:16:12.265Z,0.00
2022-09-20T03:17:12.118Z,0.00
2022-09-20T03:18:12.034Z,0.00
2022-09-20T03:19:11.957Z,0.00
2022-09-20T03:20:11.869Z,0.00
2022-09-20T03:21:11.807Z,0.00
2022-09-20T03:22:11.715Z,0.00
2022-09-20T03:23:11.625Z,0.00
2022-09-20T03:24:11.542Z,0.00
2022-09-20T03:25:11.459Z,0.00
2022-09-20T03:26:11.377Z,0.00
2022-09-20T03:27:11.297Z,0.00
2022-09-20T03:28:11.218Z,0.00
2022-09-20T03:29:11.131Z,0.00
2022-09-20T03:30:11.051Z,0.00
2022-09-20T03:31:11.169Z,0.00
2022-09-20T03:32:10.948Z,0.00
2022-09-20T03:33:10.806Z,0.00
2022-09-20T03:34:10.725Z,0.00
2022-09-20T03:35:10.644Z,0.00
2022-09-20T03:36:10.559Z,0.00
2022-09-20T03:37:10.498Z,0.00
2022-09-20T03:38:10.396Z,0.00
2022-09-20T03:39:10.316Z,0.00
2022-09-20T03:40:10.374Z,0.00
2022-09-20T03:41:10.149Z,0.00
2022-09-20T03:42:10.068Z,0.00
2022-09-20T03:43:09.988Z,0.00
2022-09-20T03:44:09.903Z,0.00
2022-09-20T03:45:09.824Z,0.00
2022-09-20T03:46:09.884Z,0.00
2022-09-20T03:47:09.664Z,0.00
2022-09-20T03:48:09.580Z,0.00
2022-09-20T03:49:09.497Z,0.00
2022-09-20T03:50:09.414Z,0.00
2022-09-20T03:51:09.339Z,0.00
2022-09-20T03:52:09.251Z,0.00
2022-09-20T03:53:09.191Z,0.00
2022-09-20T03:54:09.085Z,0.00
2022-09-20T03:55:09.007Z,0.00
2022-09-20T03:56:08.924Z,0.00
2022-09-20T03:57:08.843Z,0.00
2022-09-20T03:58:09.148Z,0.00
2022-09-20T03:59:08.787Z,0.00
2022-09-20T04:00:08.598Z,0.00
2022-09-20T04:01:08.639Z,0.00
2022-09-20T04:02:08.497Z,0.00
2022-09-20T04:03:08.352Z,0.00
2022-09-20T04:04:08.318Z,0.00
2022-09-20T04:05:08.188Z,0.00
2022-09-20T04:06:08.104Z,0.00
2022-09-20T04:07:08.026Z,0.00
2022-09-20T04:08:07.946Z,0.00
2022-09-20T04:09:07.880Z,0.00
2022-09-20T04:10:07.777Z,0.00
2022-09-20T04:11:07.697Z,0.00
2022-09-20T04:12:07.615Z,0.00
2022-09-20T04:13:07.532Z,0.00
2022-09-20T04:14:11.296Z,0.00
2022-09-20T04:15:07.375Z,0.00
2022-09-20T04:16:07.318Z,0.00
2022-09-20T04:17:07.204Z,0.00
2022-09-20T04:18:07.171Z,0.00
2022-09-20T04:19:07.039Z,0.00
2022-09-20T04:20:06.956Z,0.00
2022-09-20T04:21:06.923Z,0.00
2022-09-20T04:22:06.792Z,0.00
2022-09-20T04:23:06.715Z,0.00
2022-09-20T04:24:06.628Z,0.00
2022-09-20T04:25:06.565Z,0.00
2022-09-20T04:26:06.466Z,0.00
2022-09-20T04:27:06.382Z,0.00
2022-09-20T04:28:06.299Z,0.00
2022-09-20T04:29:06.363Z,0.00
2022-09-20T04:30:06.138Z,0.00
2022-09-20T04:31:06.055Z,0.00
2022-09-20T04:32:06.074Z,0.00
2022-09-20T04:33:05.889Z,0.00
2022-09-20T04:34:05.805Z,0.00
2022-09-20T04:35:05.730Z,0.00
2022-09-20T04:36:05.640Z,0.00
2022-09-20T04:37:05.560Z,0.00
2022-09-20T04:38:05.480Z,0.00
2022-09-20T04:39:05.395Z,0.00
2022-09-20T04:40:05.369Z,0.00
2022-09-20T04:41:05.347Z,0.00
2022-09-20T04:42:05.146Z,0.00
2022-09-20T04:43:05.067Z,0.00
2022-09-20T04:44:05.050Z,0.00
2022-09-20T04:45:04.899Z,0.00
2022-09-20T04:46:04.901Z,0.00
2022-09-20T04:47:04.735Z,0.00
2022-09-20T04:48:04.852Z,0.00
2022-09-20T04:49:04.571Z,0.00
2022-09-20T04:50:04.487Z,0.00
2022-09-20T04:51:04.406Z,0.00
2022-09-20T04:52:04.319Z,0.00
2022-09-20T04:53:04.238Z,0.00
2022-09-20T04:54:04.155Z,0.00
2022-09-20T04:55:04.075Z,0.00
2022-09-20T04:56:03.990Z,0.00
2022-09-20T04:57:03.927Z,0.00
2022-09-20T04:58:03.874Z,0.00
2022-09-20T04:59:03.746Z,0.00
2022-09-20T05:00:03.659Z,0.00
2022-09-20T05:01:03.638Z,0.00
2022-09-20T05:02:03.735Z,0.00
2022-09-20T05:03:03.418Z,0.00
2022-09-20T05:04:03.329Z,0.00
2022-09-20T05:05:03.248Z,0.00
2022-09-20T05:06:03.168Z,5.63
2022-09-20T05:07:03.080Z,5.63
2022-09-20T05:08:03.000Z,5.63
2022-09-20T05:09:02.922Z,5.63
2022-09-20T05:10:02.834Z,5.63
2022-09-20T05:11:02.750Z,5.63
2022-09-20T05:12:02.675Z,5.63
2022-09-20T05:13:02.604Z,5.63
2022-09-20T05:14:02.505Z,5.63
2022-09-20T05:15:02.421Z,11.25
2022-09-20T05:16:02.339Z,11.25
2022-09-20T05:17:02.349Z,11.25
2022-09-20T05:18:02.174Z,11.25
2022-09-20T05:19:02.091Z,11.25
2022-09-20T05:20:02.011Z,11.25
2022-09-20T05:21:01.924Z,16.88
2022-09-20T05:22:01.842Z,16.88
2022-09-20T05:23:01.760Z,16.88
2022-09-20T05:24:01.678Z,16.88
2022-09-20T05:25:01.594Z,16.88
2022-09-20T05:26:01.512Z,16.88
2022-09-20T05:27:01.431Z,22.50
2022-09-20T05:28:01.350Z,22.50
2022-09-20T05:29:01.282Z,22.50
2022-09-20T05:31:05.769Z,22.50
2022-09-20T05:32:05.188Z,22.50
2022-09-20T05:33:04.985Z,28.13
2022-09-20T05:34:04.903Z,28.13
2022-09-20T05:35:04.821Z,28.13
2022-09-20T05:36:04.738Z,28.13
2022-09-20T05:37:04.656Z,28.13
2022-09-20T05:38:04.576Z,28.13
2022-09-20T05:39:04.572Z,33.75
2022-09-20T05:40:04.488Z,33.75
2022-09-20T05:41:04.329Z,33.75
2022-09-20T05:42:04.242Z,33.75
2022-09-20T05:43:04.160Z,33.75
2022-09-20T05:44:04.097Z,33.75
2022-09-20T05:45:04.002Z,33.75
2022-09-20T05:46:04.234Z,33.75
2022-09-20T05:47:03.834Z,33.75
2022-09-20T05:48:03.748Z,33.75
2022-09-20T05:49:03.664Z,33.75
2022-09-20T05:50:03.585Z,33.75
2022-09-20T05:51:04.079Z,33.75
2022-09-20T05:52:03.419Z,33.75
2022-09-20T05:53:03.352Z,33.75
2022-09-20T05:54:05.877Z,39.38
2022-09-20T05:55:03.180Z,39.38
2022-09-20T05:56:03.090Z,39.38
2022-09-20T05:57:03.011Z,39.38
2022-09-20T05:58:02.929Z,39.38
2022-09-20T05:59:02.849Z,39.38
2022-09-20T06:00:03.082Z,39.38
2022-09-20T06:01:02.714Z,45.00
2022-09-20T06:02:02.673Z,45.00
2022-09-20T06:03:02.522Z,45.00
2022-09-20T06:04:02.438Z,45.00
2022-09-20T06:05:02.358Z,45.00
2022-09-20T06:06:02.275Z,45.00
2022-09-20T06:07:02.194Z,45.00
2022-09-20T06:08:02.111Z,45.00
2022-09-20T06:09:02.033Z,50.63
2022-09-20T06:10:01.948Z,50.63
2022-09-20T06:11:01.919Z,50.63
2022-09-20T06:12:01.787Z,56.25
2022-09-20T06:13:01.705Z,56.25
2022-09-20T06:14:01.624Z,61.88
2022-09-20T06:15:01.545Z,61.88
2022-09-20T06:16:01.482Z,67.50
2022-09-20T06:17:01.382Z,67.50
2022-09-20T06:18:01.298Z,73.13
2022-09-20T06:19:01.218Z,73.13
2022-09-20T06:20:01.140Z,73.13
2022-09-20T06:21:01.056Z,67.50
2022-09-20T06:22:03.765Z,67.50
2022-09-20T06:23:00.893Z,67.50
2022-09-20T06:24:00.820Z,67.50
2022-09-20T06:25:00.729Z,67.50
2022-09-20T06:26:00.650Z,67.50
2022-09-20T06:27:00.567Z,67.50
2022-09-20T06:28:00.485Z,67.50
2022-09-20T06:29:00.411Z,67.50
2022-09-20T06:30:00.324Z,67.50
2022-09-20T06:31:00.291Z,67.50
2022-09-20T06:32:00.182Z,67.50
2022-09-20T06:33:00.119Z,73.13
2022-09-20T06:34:00.003Z,73.13
2022-09-20T06:34:59.920Z,78.75
2022-09-20T06:35:59.839Z,78.75
2022-09-20T06:36:59.762Z,84.38
2022-09-20T06:37:59.677Z,90.00
2022-09-20T06:38:59.648Z,101.25
2022-09-20T06:39:59.629Z,112.50
2022-09-20T06:40:59.434Z,118.13
2022-09-20T06:41:59.354Z,123.75
2022-09-20T06:42:59.274Z,118.13
2022-09-20T06:43:59.208Z,118.13
2022-09-20T06:44:59.111Z,118.13
2022-09-20T06:45:59.084Z,112.50
2022-09-20T06:46:58.950Z,101.25
2022-09-20T06:47:58.888Z,95.63
2022-09-20T06:48:58.940Z,84.38
2022-09-20T06:49:58.710Z,78.75
2022-09-20T06:50:58.636Z,78.75
2022-09-20T06:51:58.548Z,78.75
2022-09-20T06:52:58.468Z,84.38
2022-09-20T06:53:58.390Z,90.00
2022-09-20T06:54:58.308Z,95.63
2022-09-20T06:55:58.226Z,95.63
2022-09-20T06:56:58.150Z,101.25
2022-09-20T06:57:58.084Z,106.88
2022-09-20T06:58:57.988Z,112.50
2022-09-20T06:59:57.912Z,118.13
2022-09-20T07:00:57.923Z,129.38
2022-09-20T07:01:57.833Z,146.25
2022-09-20T07:02:57.669Z,157.50
2022-09-20T07:03:57.610Z,151.88
2022-09-20T07:04:57.521Z,151.88
2022-09-20T07:05:57.427Z,146.25
2022-09-20T07:06:57.350Z,151.88
2022-09-20T07:07:57.268Z,163.13
2022-09-20T07:08:57.190Z,157.50
2022-09-20T07:09:57.111Z,163.13
2022-09-20T07:10:57.033Z,163.13
2022-09-20T07:11:56.952Z,163.13
2022-09-20T07:12:56.873Z,163.13
2022-09-20T07:13:56.795Z,168.75
2022-09-20T07:14:56.716Z,168.75
2022-09-20T07:15:56.634Z,174.38
2022-09-20T07:16:56.557Z,180.00
2022-09-20T07:17:56.478Z,180.00
2022-09-20T07:18:56.399Z,180.00
2022-09-20T07:19:56.336Z,168.75
2022-09-20T07:20:56.240Z,157.50
2022-09-20T07:21:56.163Z,146.25
2022-09-20T07:22:56.285Z,140.63
2022-09-20T07:23:56.001Z,135.00
2022-09-20T07:24:55.926Z,135.00
2022-09-20T07:27:26.445Z,140.63
2022-09-20T07:28:23.275Z,140.63
2022-09-20T07:29:23.198Z,146.25
2022-09-20T07:30:23.207Z,146.25
2022-09-20T07:31:23.170Z,146.25
2022-09-20T07:32:22.959Z,146.25
2022-09-20T07:33:22.899Z,135.00
2022-09-20T07:34:22.801Z,123.75
2022-09-20T07:35:22.751Z,106.88
2022-09-20T07:36:22.644Z,101.25
2022-09-20T07:37:22.565Z,101.25
2022-09-20T07:38:22.499Z,95.63
2022-09-20T07:39:22.409Z,95.63
2022-09-20T07:40:22.465Z,101.25
2022-09-20T07:45:31.099Z,112.50
2022-09-20T07:46:31.112Z,118.13
2022-09-20T07:47:30.882Z,118.13
2022-09-20T07:48:30.799Z,106.88
2022-09-20T07:49:30.720Z,112.50
2022-09-20T07:50:30.661Z,106.88
2022-09-20T07:51:30.563Z,106.88
2022-09-20T07:52:30.484Z,112.50
2022-09-20T07:53:30.407Z,118.13
2022-09-20T07:54:30.329Z,118.13
2022-09-20T07:55:30.266Z,112.50
2022-09-20T07:56:30.169Z,112.50
2022-09-20T07:57:30.090Z,106.88
2022-09-20T07:58:30.012Z,101.25
2022-09-20T07:59:29.936Z,106.88
2022-09-20T08:00:29.854Z,106.88
2022-09-20T08:01:29.826Z,101.25
2022-09-20T08:02:29.771Z,106.88
2022-09-20T08:03:29.618Z,123.75
2022-09-20T08:04:29.540Z,123.75
2022-09-20T08:05:29.495Z,118.13
2022-09-20T08:06:29.399Z,118.13
2022-09-20T08:07:29.301Z,112.50
2022-09-20T08:08:29.221Z,112.50
2022-09-20T08:10:21.629Z,112.50
2022-09-20T08:11:21.550Z,123.75
2022-09-20T08:14:21.493Z,140.63
2022-09-20T08:15:21.234Z,135.00
2022-09-20T08:16:21.182Z,140.63
2022-09-20T08:17:21.075Z,151.88
2022-09-20T08:18:20.999Z,157.50
2022-09-20T08:19:20.934Z,180.00
2022-09-20T08:20:20.886Z,191.25
2022-09-20T08:21:20.759Z,236.25
2022-09-20T08:22:20.696Z,275.63
2022-09-20T08:23:23.774Z,309.38
2022-09-20T08:24:20.527Z,253.13
2022-09-20T08:25:20.442Z,258.75
2022-09-20T08:26:20.364Z,270.00
2022-09-20T08:27:20.283Z,270.00
2022-09-20T08:28:20.208Z,247.50
2022-09-20T08:29:20.126Z,247.50
2022-09-20T08:30:23.274Z,247.50
2022-09-20T08:31:20.064Z,230.63
2022-09-20T08:32:19.892Z,264.38
2022-09-20T08:33:19.811Z,258.75
2022-09-20T08:34:19.733Z,315.00
2022-09-20T08:35:19.653Z,292.50
2022-09-20T08:36:19.576Z,275.63
2022-09-20T08:37:19.496Z,264.38
2022-09-20T08:40:19.395Z,247.50
2022-09-20T08:41:19.185Z,253.13
2022-09-20T08:42:19.106Z,253.13
2022-09-20T08:43:22.366Z,258.75
2022-09-20T08:44:18.950Z,275.63
2022-09-20T08:45:22.651Z,281.25
2022-09-20T08:46:23.324Z,281.25
2022-09-20T08:47:18.915Z,270.00
2022-09-20T08:48:18.684Z,275.63
2022-09-20T08:49:18.555Z,219.38
2022-09-20T08:50:18.477Z,213.75
2022-09-20T08:51:22.631Z,213.75
2022-09-20T08:52:18.321Z,230.63
2022-09-20T08:53:21.444Z,236.25
2022-09-20T08:54:18.185Z,258.75
2022-09-20T08:55:18.087Z,264.38
2022-09-20T08:56:18.008Z,258.75
2022-09-20T08:57:17.952Z,264.38
2022-09-20T08:58:17.852Z,247.50
2022-09-20T08:59:17.773Z,247.50
2022-09-20T09:00:17.694Z,236.25
2022-09-20T09:01:17.701Z,230.63
2022-09-20T09:02:17.626Z,230.63
2022-09-20T09:03:17.461Z,219.38
2022-09-20T09:04:17.383Z,230.63
2022-09-20T09:05:17.305Z,236.25
2022-09-20T09:06:18.550Z,247.50
2022-09-20T09:07:17.148Z,247.50
2022-09-20T09:08:17.071Z,253.13
2022-09-20T09:09:16.991Z,258.75
2022-09-20T09:10:17.027Z,258.75
2022-09-20T09:11:16.837Z,270.00
2022-09-20T09:12:16.760Z,275.63
2022-09-20T09:13:16.680Z,270.00
2022-09-20T09:14:16.603Z,270.00
2022-09-20T09:15:17.545Z,270.00
2022-09-20T09:16:22.678Z,264.38
2022-09-20T09:17:16.369Z,264.38
2022-09-20T09:18:16.294Z,270.00
2022-09-20T09:19:16.215Z,264.38
2022-09-20T09:20:16.139Z,258.75
2022-09-20T09:21:16.060Z,241.88
2022-09-20T09:22:15.983Z,230.63
2022-09-20T09:23:15.905Z,219.38
2022-09-20T09:24:15.827Z,208.13
2022-09-20T09:25:15.747Z,196.88
2022-09-20T09:26:15.691Z,191.25
2022-09-20T09:27:15.593Z,191.25
2022-09-20T09:28:15.516Z,191.25
2022-09-20T09:29:15.439Z,202.50
2022-09-20T09:30:15.361Z,213.75
2022-09-20T09:31:15.319Z,219.38
2022-09-20T09:32:15.208Z,230.63
2022-09-20T09:33:15.128Z,241.88
2022-09-20T09:34:15.052Z,270.00
2022-09-20T09:35:14.972Z,281.25
2022-09-20T09:36:14.902Z,286.88
2022-09-20T09:37:14.817Z,286.88
2022-09-20T09:38:14.740Z,292.50
2022-09-20T09:39:14.660Z,309.38
2022-09-20T09:40:14.663Z,326.25
2022-09-20T09:41:14.507Z,343.13
2022-09-20T09:42:14.451Z,354.38
2022-09-20T09:43:14.351Z,360.00
2022-09-20T09:44:14.278Z,365.63
2022-09-20T09:45:14.198Z,371.25
2022-09-20T09:46:14.181Z,382.50
2022-09-20T09:47:14.040Z,376.88
2022-09-20T09:48:13.964Z,376.88
2022-09-20T09:49:14.171Z,371.25
2022-09-20T09:50:13.812Z,365.63
2022-09-20T09:51:13.731Z,371.25
2022-09-20T09:52:13.656Z,371.25
2022-09-20T09:53:13.578Z,360.00
2022-09-20T09:54:13.500Z,348.75
2022-09-20T09:55:13.524Z,331.88
2022-09-20T09:56:14.349Z,315.00
2022-09-20T09:57:13.271Z,303.75
2022-09-20T09:58:13.211Z,292.50
2022-09-20T09:59:13.118Z,275.63
2022-09-20T10:01:13.040Z,270.00
2022-09-20T10:02:12.967Z,270.00
2022-09-20T10:03:12.809Z,275.63
2022-09-20T10:04:12.736Z,286.88
2022-09-20T10:05:12.657Z,286.88
2022-09-20T10:06:12.579Z,292.50
2022-09-20T10:07:12.501Z,292.50
2022-09-20T10:08:12.428Z,303.75
2022-09-20T10:09:12.350Z,298.13
2022-09-20T10:10:12.274Z,292.50
2022-09-20T10:11:12.201Z,286.88
2022-09-20T10:12:12.120Z,292.50
2022-09-20T10:13:12.042Z,309.38
2022-09-20T10:14:11.985Z,320.63
2022-09-20T10:15:11.889Z,343.13
2022-09-20T10:16:11.849Z,326.25
2022-09-20T10:17:11.737Z,292.50
2022-09-20T10:18:11.661Z,275.63
2022-09-20T10:19:11.583Z,258.75
2022-09-20T10:20:11.508Z,247.50
2022-09-20T10:21:11.429Z,208.13
2022-09-20T10:22:11.354Z,168.75
2022-09-20T10:24:11.202Z,185.63
2022-09-20T10:25:11.126Z,191.25
2022-09-20T10:26:11.049Z,202.50
2022-09-20T10:27:11.021Z,213.75
2022-09-20T10:28:10.896Z,208.13
2022-09-20T10:29:10.820Z,213.75
2022-09-20T10:30:10.763Z,219.38
2022-09-20T10:31:10.726Z,219.38
2022-09-20T10:32:13.188Z,213.75
2022-09-20T10:33:10.511Z,208.13
2022-09-20T10:34:10.434Z,185.63
2022-09-20T10:35:10.356Z,163.13
2022-09-20T10:36:10.284Z,151.88
2022-09-20T10:37:10.204Z,168.75
2022-09-20T10:38:10.125Z,168.75
2022-09-20T10:39:10.052Z,174.38
2022-09-20T10:40:10.003Z,174.38
2022-09-20T10:41:09.901Z,174.38
2022-09-20T10:42:09.820Z,174.38
2022-09-20T10:43:09.740Z,174.38
2022-09-20T10:44:09.664Z,208.13
2022-09-20T10:45:09.590Z,185.63
2022-09-20T10:46:30.748Z,191.25
2022-09-20T10:47:09.513Z,196.88
2022-09-20T10:48:09.379Z,202.50
2022-09-20T10:49:09.365Z,213.75
2022-09-20T10:50:09.200Z,225.00
2022-09-20T10:51:09.122Z,247.50
2022-09-20T10:52:09.045Z,253.13
2022-09-20T10:53:08.967Z,286.88
2022-09-20T10:54:08.890Z,343.13
2022-09-20T10:55:08.814Z,410.63
2022-09-20T10:56:08.737Z,461.25
2022-09-20T10:57:08.658Z,568.13
2022-09-20T10:58:08.584Z,556.88
2022-09-20T10:59:08.505Z,478.13
2022-09-20T11:00:08.428Z,472.50
2022-09-20T11:01:08.404Z,506.25
2022-09-20T11:02:08.429Z,523.13
2022-09-20T11:03:08.297Z,590.63
2022-09-20T11:04:08.218Z,585.00
2022-09-20T11:05:08.048Z,478.13
2022-09-20T11:06:07.973Z,410.63
2022-09-20T11:07:07.894Z,382.50
2022-09-20T11:08:07.819Z,410.63
2022-09-20T11:09:11.829Z,455.63
2022-09-20T11:10:07.667Z,528.75
2022-09-20T11:12:10.190Z,556.88
2022-09-20T11:13:10.009Z,708.75
2022-09-20T11:14:09.936Z,523.13
2022-09-20T11:15:09.863Z,500.63
2022-09-20T11:16:09.883Z,523.13
2022-09-20T11:17:09.707Z,523.13
2022-09-20T11:18:09.661Z,551.25
2022-09-20T11:19:09.556Z,579.38
2022-09-20T11:20:09.483Z,607.50
2022-09-20T11:21:09.409Z,708.75
2022-09-20T11:22:09.337Z,607.50
2022-09-20T11:23:09.257Z,568.13
2022-09-20T11:24:09.181Z,528.75
2022-09-20T11:25:09.104Z,489.38
2022-09-20T11:26:09.032Z,500.63
2022-09-20T11:27:08.955Z,495.00
2022-09-20T11:28:08.879Z,421.88
2022-09-20T11:29:08.811Z,444.38
2022-09-20T11:30:08.731Z,399.38
2022-09-20T11:31:08.655Z,393.75
2022-09-20T11:32:08.650Z,438.75
2022-09-20T11:33:08.505Z,489.38
2022-09-20T11:34:08.450Z,540.00
2022-09-20T11:35:08.370Z,590.63
2022-09-20T11:36:08.279Z,613.13
2022-09-20T11:37:08.203Z,1501.88
2022-09-20T11:38:08.128Z,1951.88
2022-09-20T11:39:08.100Z,3099.38
2022-09-20T11:44:16.792Z,3150.00
2022-09-20T11:46:04.315Z,3645.00
2022-09-20T11:47:04.136Z,3571.88
2022-09-20T11:48:04.067Z,1861.88
2022-09-20T11:49:04.001Z,1091.25
2022-09-20T11:50:03.947Z,1108.13
2022-09-20T11:51:03.852Z,945.00
2022-09-20T11:52:03.782Z,1085.63
2022-09-20T11:53:03.711Z,675.00
2022-09-20T11:54:03.642Z,1085.63
2022-09-20T11:55:03.572Z,658.13
2022-09-20T11:56:03.503Z,720.00
2022-09-20T11:57:03.430Z,630.00
2022-09-20T11:58:03.360Z,562.50
2022-09-20T11:59:03.290Z,658.13
2022-09-20T12:00:03.218Z,523.13
2022-09-20T12:01:03.145Z,562.50
2022-09-20T12:02:03.402Z,635.63
2022-09-20T12:03:03.465Z,725.63
2022-09-20T12:04:37.114Z,933.75
2022-09-20T12:05:02.861Z,3639.38
2022-09-20T12:06:02.931Z,2075.63
2022-09-20T12:07:08.693Z,3560.63
2022-09-20T12:09:02.573Z,1006.88
2022-09-20T12:10:02.499Z,798.75
2022-09-20T12:11:02.430Z,742.50
2022-09-20T12:12:02.355Z,697.50
2022-09-20T12:13:02.372Z,663.75
2022-09-20T12:14:02.220Z,534.38
2022-09-20T12:15:02.145Z,720.00
2022-09-20T12:16:02.242Z,466.88
2022-09-20T12:17:02.003Z,421.88
2022-09-20T12:18:06.750Z,421.88
2022-09-20T12:19:01.860Z,399.38
2022-09-20T12:20:01.791Z,382.50
2022-09-20T12:21:01.716Z,360.00
2022-09-20T12:22:01.662Z,354.38
2022-09-20T12:23:01.572Z,320.63
2022-09-20T12:24:01.497Z,286.88
2022-09-20T12:26:01.353Z,196.88
2022-09-20T12:27:01.281Z,157.50
2022-09-20T12:28:01.205Z,129.38
2022-09-20T12:29:01.134Z,118.13
2022-09-20T12:30:01.059Z,118.13
2022-09-20T12:31:00.987Z,118.13
2022-09-20T12:32:00.990Z,118.13
2022-09-20T12:33:00.838Z,118.13
2022-09-20T12:34:00.763Z,123.75
2022-09-20T12:35:00.693Z,123.75
2022-09-20T12:36:00.625Z,135.00
2022-09-20T12:37:00.539Z,146.25
2022-09-20T12:38:00.482Z,157.50
2022-09-20T12:39:00.390Z,168.75
2022-09-20T12:40:00.389Z,180.00
2022-09-20T12:41:00.271Z,185.63
2022-09-20T12:42:00.160Z,191.25
2022-09-20T12:43:01.501Z,185.63
2022-09-20T12:44:00.008Z,191.25
2022-09-20T12:44:59.934Z,191.25
2022-09-20T12:46:03.981Z,196.88
2022-09-20T12:46:59.983Z,196.88
2022-09-20T12:47:59.704Z,196.88
2022-09-20T12:48:59.627Z,196.88
2022-09-20T12:49:59.551Z,196.88
2022-09-20T12:50:59.474Z,196.88
2022-09-20T12:51:59.397Z,202.50
2022-09-20T12:52:59.523Z,213.75
2022-09-20T12:54:00.072Z,225.00
2022-09-20T12:55:03.778Z,247.50
2022-09-20T12:55:59.090Z,258.75
2022-09-20T12:56:59.013Z,275.63
2022-09-20T12:57:58.936Z,298.13
2022-09-20T12:58:58.863Z,331.88
2022-09-20T12:59:58.783Z,405.00
2022-09-20T13:00:58.752Z,601.88
2022-09-20T13:01:58.695Z,1012.50
2022-09-20T13:02:58.558Z,2891.25
2022-09-20T13:03:58.474Z,961.88
2022-09-20T13:04:58.400Z,2688.75
2022-09-20T13:05:58.422Z,2289.38
2022-09-20T13:06:58.250Z,1001.25
2022-09-20T13:07:58.172Z,3048.75
2022-09-20T13:08:58.107Z,1462.50
2022-09-20T13:09:58.040Z,883.13
2022-09-20T13:10:57.951Z,843.75
2022-09-20T13:11:57.877Z,1147.50
2022-09-20T13:12:57.801Z,1141.88
2022-09-20T13:13:57.729Z,2013.75
2022-09-20T13:14:57.655Z,2992.50
2022-09-20T13:15:57.688Z,2863.13
2022-09-20T13:16:57.509Z,1940.63
2022-09-20T13:17:57.438Z,1468.13
2022-09-20T13:18:57.367Z,2700.00
2022-09-20T13:19:57.293Z,2649.38
2022-09-20T13:23:42.894Z,2598.75
2022-09-20T13:24:42.823Z,2587.50
2022-09-20T13:25:42.773Z,2615.63
2022-09-20T13:26:43.292Z,2655.00
2022-09-20T13:27:45.238Z,2688.75
2022-09-20T13:28:42.546Z,2745.00
2022-09-20T13:30:30.182Z,2756.25
2022-09-20T13:31:29.968Z,2767.50
2022-09-20T13:32:29.839Z,725.63
2022-09-20T13:33:32.392Z,646.88
2022-09-20T13:34:29.706Z,686.25
2022-09-20T13:36:12.130Z,1440.00
2022-09-20T13:37:12.063Z,2823.75
2022-09-20T13:38:11.994Z,2683.13
2022-09-20T13:39:11.929Z,1153.13
2022-09-20T13:40:11.907Z,748.13
2022-09-20T13:41:11.809Z,849.38
2022-09-20T13:42:11.727Z,945.00
2022-09-20T13:43:23.660Z,2604.38
2022-09-20T13:44:11.590Z,2486.25
2022-09-20T13:45:11.525Z,2221.88
2022-09-20T13:46:11.564Z,2019.38
2022-09-20T13:47:11.386Z,2739.38
2022-09-20T13:48:11.320Z,2750.63
2022-09-20T13:49:11.252Z,832.50
2022-09-20T13:50:11.188Z,1580.63
2022-09-20T13:52:43.650Z,2514.38
2022-09-20T13:53:44.389Z,2317.50
2022-09-20T13:55:26.878Z,894.38
2022-09-20T13:56:26.227Z,635.63
2022-09-20T13:57:26.140Z,551.25
2022-09-20T13:58:26.076Z,1451.25
2022-09-20T13:59:26.006Z,1935.00
2022-09-20T14:00:25.939Z,2300.63
2022-09-20T14:01:25.948Z,1276.88
2022-09-20T14:02:26.412Z,2283.75